Terminal Aerodrome Forecast
Issued by NWS Charleston, WV

Current Version | Previous Version | Graphics & Text | Print | Product List | Glossary On
Versions: 1 2 3 4 5 6 7 8 9 10 11 12 13 14 15 16 17 18 19 20 21 22 23 24
000
FTUS41 KRLX 222300
TAFEKN
TAF
KEKN 222323Z 2300/2324 29012G22KT P6SM BKN035
      TEMPO 2300/2301 6SM -SHRA BKN028
     FM230200 28010G19KT P6SM BKN028
     FM230700 27008KT P6SM BKN035
     FM231500 29012G23KT P6SM BKN025
     FM231700 29013G23KT P6SM BKN035=

USA.gov is the U.S. government's official web portal to all federal, state and local government web resources and services.